»·PEaware :: N196EC KSAN-KEMT

N196EC :: KSAN-KEMT

FLIGHT INFORMATION

Flight Status: Arrived
Operator: Privately registered:
United States
More flights under this callsign
Pilot: Adrián R. (20842)
Aircraft: CESSNA 172 SKYHAWK
(C172)
More flights by this aircraft type
Origin: KSAN San Diego Intl-Lindbergh
United States
Destination: KEMT El Monte
United States
More flights between these airports :: More routes between these airports
Route: +OCN V23 DANAH V363 POM
File this flight plan on PilotEdge
Remarks: TEC ROUTE SANP23
Altitude:
(Current/Filed)
6,000ft
Speed:
(Current/Filed)
110kts
Departed: 15-Nov-18 08:39 AM
Arrived: 15-Nov-18 09:38 AM
Distance/Time
Traveled:
91nm/0:59
Distance/Time
To Go:
Arrived

Flight Plot

Page will automatically refresh every two minutes.


Map Options




Map Legend


Flown Route
Filed Route
Departure Airport
Arrival Airport
Navaid (VOR, NDB)
Fix

Horizontal Profiles

Position Reports

Time Latitude Longitude Heading Altitude Ground
Speed
15-Nov-18 08:12 32.732516 -117.177104 194 22ft 0kts
15-Nov-18 08:13 32.732516 -117.177104 194 22ft 0kts
15-Nov-18 08:14 32.732516 -117.177104 194 22ft 0kts
15-Nov-18 08:15 32.732516 -117.177104 194 22ft 0kts
15-Nov-18 08:16 32.732516 -117.177104 193 22ft 0kts
15-Nov-18 08:17 32.732516 -117.177104 193 22ft 0kts
15-Nov-18 08:18 32.732516 -117.177104 193 22ft 0kts
15-Nov-18 08:19 32.732516 -117.177104 193 22ft 0kts
15-Nov-18 08:20 32.732516 -117.177104 193 22ft 0kts
15-Nov-18 08:21 32.732516 -117.177104 193 22ft 0kts
15-Nov-18 08:22 32.732516 -117.177104 193 22ft 0kts
15-Nov-18 08:23 32.732516 -117.177104 193 22ft 0kts
15-Nov-18 08:24 32.732516 -117.177104 193 22ft 0kts
15-Nov-18 08:25 32.732516 -117.177104 193 22ft 0kts
15-Nov-18 08:26 32.732516 -117.177104 193 22ft 0kts
15-Nov-18 08:27 32.732516 -117.177104 193 22ft 0kts
15-Nov-18 08:28 32.732516 -117.177104 193 22ft 0kts
15-Nov-18 08:29 32.732516 -117.177104 193 22ft 0kts
15-Nov-18 08:30 32.732516 -117.177104 193 22ft 0kts
15-Nov-18 08:31 32.732516 -117.177104 193 22ft 0kts
15-Nov-18 08:32 32.732516 -117.177104 193 22ft 0kts
15-Nov-18 08:33 32.732516 -117.177104 193 22ft 0kts
15-Nov-18 08:34 32.732516 -117.177104 193 22ft 0kts
15-Nov-18 08:35 32.732516 -117.177104 193 22ft 0kts
15-Nov-18 08:36 32.732516 -117.177104 193 22ft 0kts
15-Nov-18 08:37 32.732253 -117.177481 189 21ft 6kts
15-Nov-18 08:38 32.731765 -117.177244 127 21ft 7kts
15-Nov-18 08:39 32.730923 -117.175246 197 24ft 0kts
15-Nov-18 08:40 32.730923 -117.175246 197 24ft 0kts
15-Nov-18 08:41 32.730792 -117.175274 184 23ft 7kts
15-Nov-18 08:42 32.730598 -117.177481 287 19ft 46kts
15-Nov-18 08:43 32.737041 -117.201519 297 713ft 80kts
15-Nov-18 08:44 32.754353 -117.217691 323 1514ft 81kts
15-Nov-18 08:45 32.772510 -117.232991 324 2260ft 81kts
15-Nov-18 08:46 32.791066 -117.248600 327 2970ft 82kts
15-Nov-18 08:47 32.812385 -117.257530 340 3640ft 81kts
15-Nov-18 08:48 32.833911 -117.266095 340 4258ft 82kts
15-Nov-18 08:49 32.854999 -117.276232 341 4871ft 82kts
15-Nov-18 08:50 32.875725 -117.287160 338 5452ft 82kts
15-Nov-18 08:51 32.897429 -117.296381 346 5954ft 89kts
15-Nov-18 08:52 32.924734 -117.306027 350 5989ft 107kts
15-Nov-18 08:53 32.953521 -117.315488 349 5988ft 108kts
15-Nov-18 08:54 32.982752 -117.325894 347 5987ft 110kts
15-Nov-18 08:55 33.012351 -117.335577 349 5986ft 111kts
15-Nov-18 08:56 33.042140 -117.345553 348 5986ft 111kts
15-Nov-18 08:57 33.071990 -117.356034 347 5986ft 112kts
15-Nov-18 08:58 33.101814 -117.366655 347 5986ft 112kts
15-Nov-18 08:59 33.127786 -117.375944 347 5987ft 111kts
15-Nov-18 09:00 33.157205 -117.386482 347 5990ft 109kts
15-Nov-18 09:01 33.186116 -117.396849 347 5993ft 108kts
15-Nov-18 09:02 33.214653 -117.407244 346 5996ft 106kts
15-Nov-18 09:03 33.241767 -117.419036 323 5999ft 107kts
15-Nov-18 09:04 33.263411 -117.443463 319 5999ft 106kts
15-Nov-18 09:05 33.284553 -117.467947 319 6000ft 105kts
15-Nov-18 09:06 33.305593 -117.492472 319 5999ft 107kts
15-Nov-18 09:07 33.326931 -117.517416 319 5998ft 107kts
15-Nov-18 09:08 33.348358 -117.542423 318 6004ft 108kts
15-Nov-18 09:09 33.369791 -117.567484 318 6004ft 108kts
15-Nov-18 09:10 33.391233 -117.592583 318 6004ft 108kts
15-Nov-18 09:11 33.412668 -117.617697 318 6004ft 108kts
15-Nov-18 09:12 33.434098 -117.642825 318 6004ft 108kts
15-Nov-18 09:13 33.453953 -117.666123 318 6003ft 108kts
15-Nov-18 09:14 33.474789 -117.690587 318 6003ft 108kts
15-Nov-18 09:15 33.501956 -117.700973 352 6003ft 105kts
15-Nov-18 09:16 33.530871 -117.705567 354 6003ft 105kts
15-Nov-18 09:17 33.559812 -117.710249 353 6003ft 105kts
15-Nov-18 09:18 33.588611 -117.715058 353 6003ft 105kts
15-Nov-18 09:19 33.617365 -117.719909 353 6004ft 104kts
15-Nov-18 09:20 33.647875 -117.723735 355 5647ft 115kts
15-Nov-18 09:21 33.679901 -117.728219 353 5145ft 116kts
15-Nov-18 09:22 33.710137 -117.732917 353 5003ft 105kts
15-Nov-18 09:23 33.738862 -117.737154 354 5005ft 104kts
15-Nov-18 09:24 33.767638 -117.741353 354 5006ft 104kts
15-Nov-18 09:25 33.796488 -117.745561 353 5006ft 104kts
15-Nov-18 09:26 33.825383 -117.749777 353 5005ft 105kts
15-Nov-18 09:27 33.854301 -117.753999 353 5005ft 105kts
15-Nov-18 09:28 33.883190 -117.758221 353 5004ft 105kts
15-Nov-18 09:29 33.912218 -117.762465 353 5003ft 105kts
15-Nov-18 09:30 33.938213 -117.776665 322 5004ft 106kts
15-Nov-18 09:31 33.963022 -117.800375 322 4607ft 120kts
15-Nov-18 09:32 33.985721 -117.829212 301 4034ft 123kts
15-Nov-18 09:33 34.003319 -117.865067 301 3334ft 125kts
15-Nov-18 09:34 34.020109 -117.899410 301 3011ft 110kts
15-Nov-18 09:35 34.035992 -117.931978 301 3014ft 115kts
15-Nov-18 09:36 34.056096 -117.960695 333 2690ft 112kts
15-Nov-18 09:37 34.080825 -117.983510 328 2236ft 112kts
15-Nov-18 09:38 34.104320 -117.997928 337 1697ft 91kts
15-Nov-18 09:39 34.112616 -118.016848 251 1136ft 94kts
15-Nov-18 09:40 34.092033 -118.031421 206 398ft 60kts
15-Nov-18 09:41 34.085247 -118.034392 83 296ft 7kts
15-Nov-18 09:42 34.085775 -118.033319 22 296ft 0kts
15-Nov-18 09:43 34.085775 -118.033319 23 296ft 0kts
15-Nov-18 09:44 34.085775 -118.033319 23 296ft 0kts
15-Nov-18 09:45 34.085775 -118.033319 23 296ft 0kts
15-Nov-18 09:46 34.085775 -118.033319 23 296ft 0kts
15-Nov-18 09:47 34.085775 -118.033319 23 296ft 0kts
15-Nov-18 09:48 34.085775 -118.033319 23 296ft 0kts
15-Nov-18 09:49 34.085775 -118.033319 23 296ft 0kts
15-Nov-18 09:50 34.085775 -118.033319 23 296ft 0kts
15-Nov-18 09:51 34.085775 -118.033319 23 296ft 0kts
15-Nov-18 09:52 34.085775 -118.033319 23 296ft 0kts
15-Nov-18 09:53 34.085775 -118.033319 23 296ft 0kts
15-Nov-18 09:54 34.085775 -118.033319 23 296ft 0kts
15-Nov-18 09:55 34.085775 -118.033319 23 296ft 0kts

Navigation Log

Ident Type
Flight plan parsing failed, navigation log unavailable